createdAt,value
2017-09-13T00:01:25.231Z,66.30
2017-09-13T00:03:51.816Z,66.10
2017-09-13T00:06:18.228Z,66.60
2017-09-13T00:08:44.640Z,66.80
2017-09-13T00:11:11.079Z,66.60
2017-09-13T00:13:37.497Z,66.50
2017-09-13T00:16:04.676Z,66.10
2017-09-13T00:18:31.304Z,66.00
2017-09-13T00:20:57.783Z,66.30
2017-09-13T00:23:25.177Z,66.50
2017-09-13T00:25:52.503Z,66.60
2017-09-13T00:28:18.911Z,66.60
2017-09-13T00:30:45.735Z,67.20
2017-09-13T00:33:12.955Z,66.20
2017-09-13T00:35:39.722Z,66.10
2017-09-13T00:38:06.192Z,66.40
2017-09-13T00:40:32.612Z,66.40
2017-09-13T00:42:59.026Z,66.10
2017-09-13T00:45:25.438Z,66.20
2017-09-13T00:47:52.015Z,66.00
2017-09-13T00:50:18.478Z,65.80
2017-09-13T00:52:45.729Z,66.20
2017-09-13T00:55:12.974Z,66.00
2017-09-13T00:57:40.171Z,66.00
2017-09-13T01:00:06.642Z,66.00
2017-09-13T01:02:33.367Z,66.50
2017-09-13T01:04:59.812Z,66.00
2017-09-13T01:07:26.275Z,66.70
2017-09-13T01:09:52.725Z,66.80
2017-09-13T01:12:19.944Z,66.60
2017-09-13T01:14:46.385Z,66.50
2017-09-13T01:17:12.798Z,67.10
2017-09-13T01:19:39.470Z,67.00
2017-09-13T01:22:05.928Z,66.30
2017-09-13T01:24:32.834Z,66.20
2017-09-13T01:26:59.266Z,65.80
2017-09-13T01:29:25.678Z,66.80
2017-09-13T01:31:52.096Z,66.50
2017-09-13T01:34:18.562Z,66.40
2017-09-13T01:36:44.990Z,66.70
2017-09-13T01:39:11.401Z,66.20
2017-09-13T01:41:38.199Z,66.50
2017-09-13T01:44:04.603Z,66.30
2017-09-13T01:46:32.496Z,66.80
2017-09-13T01:48:59.751Z,66.70
2017-09-13T01:51:26.182Z,66.50
2017-09-13T01:53:52.605Z,66.20
2017-09-13T01:56:19.103Z,66.60
2017-09-13T01:58:45.503Z,66.30
2017-09-13T02:01:11.923Z,66.50
2017-09-13T02:03:38.348Z,66.60
2017-09-13T02:06:04.768Z,66.50
2017-09-13T02:08:32.023Z,66.80
2017-09-13T02:10:58.468Z,66.80
2017-09-13T02:13:24.916Z,66.50
2017-09-13T02:15:51.362Z,66.80
2017-09-13T02:18:17.767Z,67.10
2017-09-13T02:20:44.463Z,67.50
2017-09-13T02:23:11.680Z,67.50
2017-09-13T02:25:38.088Z,67.40
2017-09-13T02:28:04.519Z,67.80
2017-09-13T02:30:31.056Z,67.50
2017-09-13T02:32:57.490Z,67.60
2017-09-13T02:35:23.924Z,67.90
2017-09-13T02:37:50.316Z,68.20
2017-09-13T02:40:16.781Z,68.40
2017-09-13T02:42:43.188Z,67.70
2017-09-13T02:45:10.334Z,67.20
2017-09-13T02:47:36.747Z,67.20
2017-09-13T02:50:03.166Z,67.00
2017-09-13T02:52:29.620Z,67.00
2017-09-13T02:54:56.803Z,66.20
2017-09-13T02:57:24.069Z,66.30
2017-09-13T02:59:50.565Z,66.30
2017-09-13T03:02:18.518Z,66.60
2017-09-13T03:04:45.687Z,66.80
2017-09-13T03:07:13.615Z,67.70
2017-09-13T03:09:40.072Z,67.60
2017-09-13T03:12:07.280Z,67.70
2017-09-13T03:14:33.711Z,67.70
2017-09-13T03:17:00.139Z,67.90
2017-09-13T03:19:27.285Z,68.20
2017-09-13T03:21:54.443Z,68.10
2017-09-13T03:24:20.919Z,68.10
2017-09-13T03:26:47.335Z,68.20
2017-09-13T03:29:13.760Z,68.00
2017-09-13T03:31:40.180Z,68.30
2017-09-13T03:34:06.634Z,68.60
2017-09-13T03:36:33.100Z,68.20
2017-09-13T03:39:00.767Z,67.90
2017-09-13T03:41:27.248Z,67.80
2017-09-13T03:43:53.670Z,67.80
2017-09-13T03:46:20.102Z,67.40
2017-09-13T03:48:46.632Z,66.90
2017-09-13T03:51:13.078Z,66.20
2017-09-13T03:53:39.606Z,66.00
2017-09-13T03:56:06.054Z,67.60
2017-09-13T03:58:32.534Z,67.90
2017-09-13T04:00:59.694Z,68.20
2017-09-13T04:03:26.880Z,67.20
2017-09-13T04:05:54.125Z,67.60
2017-09-13T04:08:21.394Z,67.30
2017-09-13T04:10:47.798Z,67.10
2017-09-13T04:13:14.943Z,66.20
2017-09-13T04:15:42.091Z,66.30
2017-09-13T04:18:09.270Z,66.30
2017-09-13T04:20:36.985Z,65.60
2017-09-13T04:23:03.487Z,66.60
2017-09-13T04:25:30.010Z,67.10
2017-09-13T04:27:56.483Z,67.40
2017-09-13T04:30:23.634Z,68.00
2017-09-13T04:32:50.793Z,67.60
2017-09-13T04:35:17.197Z,67.90
2017-09-13T04:37:43.617Z,68.30
2017-09-13T04:40:10.079Z,68.30
2017-09-13T04:42:37.585Z,68.10
2017-09-13T04:45:04.031Z,68.40
2017-09-13T04:47:30.523Z,67.50
2017-09-13T04:49:56.983Z,67.50
2017-09-13T04:52:23.387Z,68.30
2017-09-13T04:54:50.085Z,68.40
2017-09-13T04:57:16.586Z,67.80
2017-09-13T04:59:43.056Z,68.00
2017-09-13T05:02:09.473Z,66.80
2017-09-13T05:04:35.900Z,67.50
2017-09-13T05:07:02.303Z,68.50
2017-09-13T05:09:29.563Z,68.30
2017-09-13T05:11:56.198Z,68.30
2017-09-13T05:14:23.374Z,68.70
2017-09-13T05:16:49.820Z,68.70
2017-09-13T05:19:16.258Z,69.50
2017-09-13T05:21:42.831Z,69.40
2017-09-13T05:24:09.300Z,69.70
2017-09-13T05:26:35.884Z,70.10
2017-09-13T05:29:03.062Z,69.80
2017-09-13T05:31:30.300Z,69.50
2017-09-13T05:33:57.481Z,69.20
2017-09-13T05:36:24.663Z,69.20
2017-09-13T05:38:51.090Z,69.10
2017-09-13T05:41:17.497Z,68.80
2017-09-13T05:43:44.658Z,68.60
2017-09-13T05:46:11.092Z,68.60
2017-09-13T05:48:37.640Z,68.50
2017-09-13T05:51:04.073Z,67.90
2017-09-13T05:53:30.579Z,67.70
2017-09-13T05:55:57.051Z,67.60
2017-09-13T05:58:23.475Z,67.10
2017-09-13T06:00:49.938Z,66.60
2017-09-13T06:03:16.343Z,66.70
2017-09-13T06:05:43.092Z,66.20
2017-09-13T06:08:09.523Z,65.80
2017-09-13T06:10:36.140Z,66.00
2017-09-13T06:13:02.614Z,65.40
2017-09-13T06:15:29.067Z,65.60
2017-09-13T06:17:56.222Z,63.60
2017-09-13T06:20:24.129Z,63.20
2017-09-13T06:22:50.517Z,63.20
2017-09-13T06:25:18.424Z,62.60
2017-09-13T06:27:44.838Z,62.60
2017-09-13T06:30:11.996Z,62.20
2017-09-13T06:32:38.484Z,62.10
2017-09-13T06:35:06.434Z,61.80
2017-09-13T06:37:32.877Z,61.80
2017-09-13T06:40:00.095Z,61.60
2017-09-13T06:42:26.553Z,61.60
2017-09-13T06:44:52.992Z,61.60
2017-09-13T06:47:19.444Z,60.00
2017-09-13T06:49:45.878Z,60.40
2017-09-13T06:52:12.327Z,59.10
2017-09-13T06:54:39.618Z,58.60
2017-09-13T06:57:06.066Z,58.10
2017-09-13T06:59:32.531Z,56.50
2017-09-13T07:01:58.989Z,55.90
2017-09-13T07:04:26.176Z,56.70
2017-09-13T07:06:52.624Z,56.60
2017-09-13T07:09:19.058Z,55.40
2017-09-13T07:11:45.478Z,56.20
2017-09-13T07:14:11.940Z,56.00
2017-09-13T07:16:40.036Z,56.90
2017-09-13T07:19:06.494Z,56.90
2017-09-13T07:21:33.083Z,56.70
2017-09-13T07:24:00.287Z,55.10
2017-09-13T07:26:26.738Z,55.10
2017-09-13T07:28:53.180Z,56.20
2017-09-13T07:31:19.592Z,55.20
2017-09-13T07:33:45.992Z,55.40
2017-09-13T07:36:12.477Z,55.30
2017-09-13T07:38:38.962Z,55.30
2017-09-13T07:41:05.392Z,54.40
2017-09-13T07:43:33.082Z,54.30
2017-09-13T07:45:59.915Z,54.40
2017-09-13T07:48:26.386Z,55.60
2017-09-13T07:50:52.846Z,55.60
2017-09-13T07:53:19.250Z,55.70
2017-09-13T07:55:45.652Z,51.80
2017-09-13T07:58:12.827Z,50.50
2017-09-13T08:00:39.378Z,50.50
2017-09-13T08:03:05.801Z,51.70
2017-09-13T08:05:32.354Z,52.00
2017-09-13T08:08:00.294Z,51.40
2017-09-13T08:10:26.720Z,51.40
2017-09-13T08:12:53.158Z,50.30
2017-09-13T08:15:19.635Z,51.30
2017-09-13T08:17:46.062Z,51.20
2017-09-13T08:20:12.490Z,50.00
2017-09-13T08:22:39.889Z,50.40
2017-09-13T08:25:06.366Z,50.10
2017-09-13T08:27:32.965Z,49.70
2017-09-13T08:29:59.423Z,50.70
2017-09-13T08:32:25.860Z,51.10
2017-09-13T08:34:52.285Z,50.20
2017-09-13T08:37:18.751Z,51.00
2017-09-13T08:39:45.175Z,51.70
2017-09-13T08:42:11.587Z,52.20
2017-09-13T08:44:38.012Z,50.70
2017-09-13T08:47:04.439Z,51.60
2017-09-13T08:49:31.011Z,51.90
2017-09-13T08:51:58.950Z,51.40
2017-09-13T08:54:25.368Z,51.60
2017-09-13T08:56:52.522Z,49.20
2017-09-13T08:59:19.012Z,49.10
2017-09-13T09:01:45.503Z,48.50
2017-09-13T09:04:11.921Z,50.10
2017-09-13T09:06:39.205Z,49.60
2017-09-13T09:09:05.632Z,49.60
2017-09-13T09:11:32.062Z,47.80
2017-09-13T09:13:58.464Z,48.70
2017-09-13T09:16:25.671Z,48.40
2017-09-13T09:18:53.604Z,48.00
2017-09-13T09:21:20.016Z,48.00
2017-09-13T09:23:47.152Z,48.60
2017-09-13T09:26:14.319Z,49.00
2017-09-13T09:28:41.463Z,49.90
2017-09-13T09:31:08.677Z,50.10
2017-09-13T09:33:35.184Z,50.00
2017-09-13T09:36:01.677Z,50.40
2017-09-13T09:38:29.233Z,50.30
2017-09-13T09:40:55.696Z,50.30
2017-09-13T09:43:22.931Z,47.60
2017-09-13T09:45:50.124Z,48.60
2017-09-13T09:48:16.591Z,48.70
2017-09-13T09:50:42.983Z,49.10
2017-09-13T09:53:09.394Z,47.60
2017-09-13T09:55:36.076Z,49.00
2017-09-13T09:58:02.536Z,49.10
2017-09-13T10:00:29.040Z,48.60
2017-09-13T10:02:55.478Z,47.70
2017-09-13T10:05:21.884Z,47.50
2017-09-13T10:07:48.294Z,47.60
2017-09-13T10:10:14.751Z,49.50
2017-09-13T10:12:41.155Z,48.90
2017-09-13T10:15:08.604Z,48.30
2017-09-13T10:17:35.853Z,47.10
2017-09-13T10:20:02.347Z,47.00
2017-09-13T10:22:28.877Z,45.90
2017-09-13T10:24:55.300Z,47.10
2017-09-13T10:27:21.715Z,45.90
2017-09-13T10:29:48.127Z,46.40
2017-09-13T10:32:15.283Z,47.60
2017-09-13T10:34:42.446Z,47.30
2017-09-13T10:37:08.892Z,47.20
2017-09-13T10:39:35.883Z,47.20
2017-09-13T10:42:02.417Z,47.20
2017-09-13T10:44:29.100Z,48.00
2017-09-13T10:46:55.567Z,47.20
2017-09-13T10:49:22.047Z,47.90
2017-09-13T10:51:49.242Z,49.30
2017-09-13T10:54:15.730Z,49.20
2017-09-13T10:56:42.171Z,48.70
2017-09-13T10:59:09.340Z,51.80
2017-09-13T11:01:36.112Z,51.90
2017-09-13T11:04:03.365Z,53.00
2017-09-13T11:06:30.062Z,53.00
2017-09-13T11:08:57.505Z,51.50
2017-09-13T11:11:24.168Z,50.70
2017-09-13T11:13:50.627Z,48.80
2017-09-13T11:16:17.156Z,50.50
2017-09-13T11:18:43.808Z,53.10
2017-09-13T11:21:11.156Z,52.40
2017-09-13T11:23:37.891Z,52.50
2017-09-13T11:26:04.358Z,51.80
2017-09-13T11:28:30.893Z,50.60
2017-09-13T11:30:57.457Z,50.10
2017-09-13T11:33:24.000Z,51.00
2017-09-13T11:35:51.269Z,52.30
2017-09-13T11:38:17.775Z,52.30
2017-09-13T11:40:45.027Z,51.60
2017-09-13T11:43:11.495Z,51.60
2017-09-13T11:45:38.054Z,51.70
2017-09-13T11:48:04.547Z,52.00
2017-09-13T11:50:31.741Z,51.70
2017-09-13T11:52:58.212Z,51.70
2017-09-13T11:55:25.398Z,53.80
2017-09-13T11:57:51.858Z,53.80
2017-09-13T12:00:18.297Z,54.00
2017-09-13T12:02:44.883Z,51.30
2017-09-13T12:05:12.042Z,49.10
2017-09-13T12:07:39.294Z,48.80
2017-09-13T12:10:05.723Z,48.80
2017-09-13T12:12:32.984Z,50.30
2017-09-13T12:14:59.442Z,50.30
2017-09-13T12:17:25.855Z,49.90
2017-09-13T12:19:52.280Z,51.90
2017-09-13T12:22:18.722Z,50.60
2017-09-13T12:24:45.330Z,49.10
2017-09-13T12:27:12.535Z,48.00
2017-09-13T12:29:39.335Z,48.00
2017-09-13T12:32:05.802Z,47.60
2017-09-13T12:34:32.209Z,48.00
2017-09-13T12:36:58.610Z,48.00
2017-09-13T12:39:25.035Z,47.20
2017-09-13T12:41:51.464Z,47.50
2017-09-13T12:44:17.897Z,49.70
2017-09-13T12:46:44.538Z,50.90
2017-09-13T12:49:11.718Z,50.70
2017-09-13T12:51:39.807Z,51.50
2017-09-13T12:54:06.303Z,51.50
2017-09-13T12:56:32.793Z,52.40
2017-09-13T12:58:59.285Z,52.90
2017-09-13T13:01:25.742Z,54.50
2017-09-13T13:03:52.179Z,54.70
2017-09-13T13:06:18.601Z,55.40
2017-09-13T13:08:45.858Z,56.60
2017-09-13T13:11:12.365Z,56.60
2017-09-13T13:13:39.092Z,57.60
2017-09-13T13:16:06.284Z,58.80
2017-09-13T13:18:32.923Z,59.30
2017-09-13T13:20:59.445Z,59.00
2017-09-13T13:23:27.275Z,58.80
2017-09-13T13:25:54.543Z,58.80
2017-09-13T13:28:21.260Z,58.80
2017-09-13T13:30:47.815Z,58.30
2017-09-13T13:33:14.251Z,58.10
2017-09-13T13:35:40.723Z,58.90
2017-09-13T13:38:07.151Z,60.20
2017-09-13T13:40:33.819Z,61.50
2017-09-13T13:43:00.246Z,65.30
2017-09-13T13:45:26.715Z,66.00
2017-09-13T13:47:54.086Z,68.10
2017-09-13T13:50:20.535Z,67.60
2017-09-13T13:52:47.915Z,67.00
2017-09-13T13:55:14.371Z,67.00
2017-09-13T13:57:40.884Z,66.40
2017-09-13T14:00:07.328Z,66.10
2017-09-13T14:02:33.909Z,66.10
2017-09-13T14:05:00.458Z,65.20
2017-09-13T14:07:27.654Z,66.50
2017-09-13T14:09:54.117Z,66.40
2017-09-13T14:12:20.616Z,65.80
2017-09-13T14:14:47.146Z,62.80
2017-09-13T14:17:13.587Z,61.00
2017-09-13T14:19:39.996Z,60.90
2017-09-13T14:22:06.452Z,60.30
2017-09-13T14:24:32.887Z,59.60
2017-09-13T14:26:59.295Z,58.90
2017-09-13T14:29:25.707Z,59.30
2017-09-13T14:31:52.118Z,59.90
2017-09-13T14:34:20.016Z,58.70
2017-09-13T14:36:47.177Z,59.00
2017-09-13T14:39:13.684Z,59.00
2017-09-13T14:41:40.377Z,59.10
2017-09-13T14:44:06.804Z,59.50
2017-09-13T14:46:33.315Z,59.40
2017-09-13T14:48:59.729Z,59.30
2017-09-13T14:51:26.159Z,59.20
2017-09-13T14:53:52.589Z,59.00
2017-09-13T14:56:19.043Z,59.30
2017-09-13T14:58:46.226Z,58.30
2017-09-13T15:01:12.668Z,58.30
2017-09-13T15:03:39.115Z,58.80
2017-09-13T15:06:07.050Z,59.30
2017-09-13T15:08:33.599Z,59.20
2017-09-13T15:11:00.038Z,58.80
2017-09-13T15:13:26.600Z,58.90
2017-09-13T15:15:54.528Z,59.10
2017-09-13T15:18:20.954Z,59.00
2017-09-13T15:20:47.436Z,58.90
2017-09-13T15:23:15.406Z,58.40
2017-09-13T15:25:41.887Z,58.40
2017-09-13T15:28:08.392Z,58.90
2017-09-13T15:30:35.861Z,57.70
2017-09-13T15:33:02.311Z,57.80
2017-09-13T15:35:28.808Z,58.10
2017-09-13T15:37:55.995Z,57.70
2017-09-13T15:40:22.445Z,57.70
2017-09-13T15:42:49.484Z,57.70
2017-09-13T15:45:15.951Z,58.10
2017-09-13T15:47:42.400Z,57.70
2017-09-13T15:50:08.849Z,58.10
2017-09-13T15:52:35.398Z,57.10
2017-09-13T15:55:01.873Z,57.40
2017-09-13T15:57:28.294Z,57.00
2017-09-13T15:59:54.869Z,56.90
2017-09-13T16:02:22.055Z,56.60
2017-09-13T16:04:49.241Z,56.40
2017-09-13T16:07:15.662Z,56.40
2017-09-13T16:09:42.084Z,56.70
2017-09-13T16:12:08.518Z,56.60
2017-09-13T16:14:35.401Z,56.40
2017-09-13T16:17:02.618Z,56.60
2017-09-13T16:19:29.111Z,56.50
2017-09-13T16:21:56.271Z,57.10
2017-09-13T16:24:22.865Z,56.80
2017-09-13T16:26:49.281Z,57.40
2017-09-13T16:29:15.702Z,57.40
2017-09-13T16:31:42.198Z,57.50
2017-09-13T16:34:09.384Z,57.80
2017-09-13T16:36:35.895Z,57.80
2017-09-13T16:39:02.403Z,57.50
2017-09-13T16:41:28.877Z,57.50
2017-09-13T16:43:55.390Z,57.60
2017-09-13T16:46:21.821Z,57.70
2017-09-13T16:48:48.380Z,58.00
2017-09-13T16:51:14.902Z,58.40
2017-09-13T16:53:42.083Z,58.90
2017-09-13T16:56:08.590Z,58.90
2017-09-13T16:58:35.062Z,59.30
2017-09-13T17:01:01.797Z,59.20
2017-09-13T17:03:28.265Z,59.40
2017-09-13T17:05:54.775Z,59.10
2017-09-13T17:08:21.396Z,58.90
2017-09-13T17:10:47.859Z,59.20
2017-09-13T17:13:14.440Z,59.30
2017-09-13T17:15:40.902Z,59.00
2017-09-13T17:18:07.540Z,59.10
2017-09-13T17:20:34.144Z,59.00
2017-09-13T17:23:01.720Z,59.20
2017-09-13T17:25:28.242Z,59.20
2017-09-13T17:27:55.477Z,59.00
2017-09-13T17:30:22.738Z,59.00
2017-09-13T17:32:49.923Z,59.00
2017-09-13T17:35:16.837Z,59.00
2017-09-13T17:37:44.257Z,59.00
2017-09-13T17:40:10.736Z,58.90
2017-09-13T17:42:37.996Z,58.80
2017-09-13T17:45:04.483Z,58.80
2017-09-13T17:47:31.364Z,59.10
2017-09-13T17:49:57.843Z,59.10
2017-09-13T17:52:24.462Z,58.80
2017-09-13T17:54:50.973Z,58.90
2017-09-13T17:57:18.234Z,58.90
2017-09-13T17:59:44.906Z,58.70
2017-09-13T18:02:11.578Z,58.50
2017-09-13T18:04:38.204Z,58.50
2017-09-13T18:07:05.488Z,58.50
2017-09-13T18:09:33.489Z,58.90
2017-09-13T18:12:00.136Z,58.80
2017-09-13T18:14:26.671Z,58.50
2017-09-13T18:16:53.165Z,58.70
2017-09-13T18:19:19.639Z,59.00
2017-09-13T18:21:46.189Z,59.10
2017-09-13T18:24:12.800Z,59.40
2017-09-13T18:26:41.317Z,59.40
2017-09-13T18:29:09.431Z,59.30
2017-09-13T18:31:36.645Z,59.80
2017-09-13T18:34:03.149Z,59.20
2017-09-13T18:36:29.610Z,59.30
2017-09-13T18:38:56.549Z,59.10
2017-09-13T18:41:23.075Z,59.10
2017-09-13T18:43:49.855Z,59.10
2017-09-13T18:46:16.751Z,59.40
2017-09-13T18:48:44.479Z,59.80
2017-09-13T18:51:11.816Z,60.50
2017-09-13T18:53:39.024Z,60.90
2017-09-13T18:56:05.971Z,60.90
2017-09-13T18:58:34.003Z,61.80
2017-09-13T19:01:01.195Z,61.80
2017-09-13T19:03:27.703Z,61.80
2017-09-13T19:05:54.170Z,61.80
2017-09-13T19:08:21.460Z,62.20
2017-09-13T19:10:47.953Z,62.20
2017-09-13T19:13:15.579Z,62.30
2017-09-13T19:15:42.065Z,62.50
2017-09-13T19:18:08.544Z,62.90
2017-09-13T19:20:35.920Z,62.80
2017-09-13T19:23:02.363Z,62.80
2017-09-13T19:25:29.842Z,62.80
2017-09-13T19:27:56.266Z,63.30
2017-09-13T19:30:22.712Z,63.60
2017-09-13T19:32:49.149Z,63.70
2017-09-13T19:35:15.575Z,63.70
2017-09-13T19:37:42.002Z,63.70
2017-09-13T19:40:08.611Z,63.80
2017-09-13T19:42:35.033Z,63.80
2017-09-13T19:45:02.372Z,64.10
2017-09-13T19:47:29.582Z,64.10
2017-09-13T19:49:56.063Z,63.80
2017-09-13T19:52:22.491Z,63.80
2017-09-13T19:54:48.911Z,64.10
2017-09-13T19:57:15.407Z,64.20
2017-09-13T19:59:41.922Z,64.30
2017-09-13T20:02:08.424Z,64.40
2017-09-13T20:04:36.364Z,64.60
2017-09-13T20:07:02.832Z,64.70
2017-09-13T20:09:29.293Z,64.50
2017-09-13T20:11:55.787Z,65.00
2017-09-13T20:14:22.972Z,65.00
2017-09-13T20:16:50.138Z,65.40
2017-09-13T20:19:16.635Z,65.40
2017-09-13T20:21:43.875Z,65.50
2017-09-13T20:24:10.291Z,65.60
2017-09-13T20:26:36.975Z,65.30
2017-09-13T20:29:04.132Z,65.40
2017-09-13T20:31:30.554Z,65.40
2017-09-13T20:33:57.714Z,65.20
2017-09-13T20:36:24.870Z,65.00
2017-09-13T20:38:51.279Z,65.00
2017-09-13T20:41:17.683Z,64.60
2017-09-13T20:43:44.102Z,64.30
2017-09-13T20:46:10.503Z,64.00
2017-09-13T20:48:36.915Z,63.90
2017-09-13T20:51:04.082Z,63.10
2017-09-13T20:53:30.599Z,63.10
2017-09-13T20:55:57.808Z,62.90
2017-09-13T20:58:24.246Z,62.90
2017-09-13T21:00:50.671Z,62.60
2017-09-13T21:03:17.096Z,62.40
2017-09-13T21:05:43.523Z,62.40
2017-09-13T21:08:09.967Z,62.20
2017-09-13T21:10:36.614Z,62.00
2017-09-13T21:13:03.071Z,62.10
2017-09-13T21:15:29.582Z,62.10
2017-09-13T21:17:56.008Z,63.00
2017-09-13T21:20:22.438Z,62.40
2017-09-13T21:22:48.838Z,62.40
2017-09-13T21:25:15.246Z,62.40
2017-09-13T21:27:41.664Z,62.00
2017-09-13T21:30:08.112Z,62.40
2017-09-13T21:32:34.518Z,62.60
2017-09-13T21:35:00.958Z,62.70
2017-09-13T21:37:27.525Z,62.60
2017-09-13T21:39:53.984Z,62.40
2017-09-13T21:42:20.412Z,62.20
2017-09-13T21:44:46.832Z,62.30
2017-09-13T21:47:13.998Z,61.70
2017-09-13T21:49:40.555Z,61.70
2017-09-13T21:52:06.988Z,61.80
2017-09-13T21:54:33.411Z,61.90
2017-09-13T21:56:59.840Z,61.60
2017-09-13T21:59:26.265Z,61.10
2017-09-13T22:01:52.748Z,61.00
2017-09-13T22:04:19.178Z,61.20
2017-09-13T22:06:45.658Z,60.90
2017-09-13T22:09:12.067Z,60.60
2017-09-13T22:11:39.241Z,60.90
2017-09-13T22:14:06.393Z,60.70
2017-09-13T22:16:32.811Z,60.70
2017-09-13T22:18:59.982Z,61.00
2017-09-13T22:21:26.410Z,61.00
2017-09-13T22:23:52.814Z,61.10
2017-09-13T22:26:19.230Z,61.00
2017-09-13T22:28:45.870Z,60.70
2017-09-13T22:31:13.092Z,60.70
2017-09-13T22:33:39.656Z,60.70
2017-09-13T22:36:06.106Z,60.20
2017-09-13T22:38:32.515Z,59.90
2017-09-13T22:40:58.939Z,59.50
2017-09-13T22:43:25.372Z,59.30
2017-09-13T22:45:51.805Z,59.00
2017-09-13T22:48:18.268Z,59.10
2017-09-13T22:50:46.168Z,58.50
2017-09-13T22:53:12.583Z,58.50
2017-09-13T22:55:39.744Z,57.70
2017-09-13T22:58:06.948Z,57.30
2017-09-13T23:00:33.442Z,57.20
2017-09-13T23:02:59.882Z,57.10
2017-09-13T23:05:26.328Z,57.20
2017-09-13T23:07:52.768Z,57.20
2017-09-13T23:10:19.313Z,56.90
2017-09-13T23:12:45.742Z,56.80
2017-09-13T23:15:12.154Z,57.10
2017-09-13T23:17:38.557Z,57.00
2017-09-13T23:20:05.717Z,56.50
2017-09-13T23:22:32.985Z,56.00
2017-09-13T23:24:59.400Z,56.00
2017-09-13T23:27:26.555Z,55.50
2017-09-13T23:29:52.984Z,55.50
2017-09-13T23:32:20.156Z,55.10
2017-09-13T23:34:46.600Z,55.10
2017-09-13T23:37:13.044Z,55.00
2017-09-13T23:39:39.484Z,54.90
2017-09-13T23:42:05.902Z,54.80
2017-09-13T23:44:32.464Z,54.80
2017-09-13T23:46:58.945Z,54.80
2017-09-13T23:49:25.378Z,54.70
2017-09-13T23:51:51.772Z,54.70
2017-09-13T23:54:18.187Z,54.70
2017-09-13T23:56:44.612Z,54.60
2017-09-13T23:59:11.037Z,54.50
